sensor_id;sensor_type;location;lat;lon;timestamp;P1;durP1;ratioP1;P2;durP2;ratioP2
18125;SDS011;53956;52.442;13.284;2023-04-03T00:01:14;8.60;;;3.53;;
18125;SDS011;53956;52.442;13.284;2023-04-03T00:03:41;9.07;;;3.03;;
18125;SDS011;53956;52.442;13.284;2023-04-03T00:06:09;11.77;;;3.90;;
18125;SDS011;53956;52.442;13.284;2023-04-03T00:08:37;6.63;;;3.03;;
18125;SDS011;53956;52.442;13.284;2023-04-03T00:11:05;8.00;;;3.67;;
18125;SDS011;53956;52.442;13.284;2023-04-03T00:13:32;7.33;;;3.10;;
18125;SDS011;53956;52.442;13.284;2023-04-03T00:15:59;7.67;;;3.30;;
18125;SDS011;53956;52.442;13.284;2023-04-03T00:18:26;3.97;;;3.33;;
18125;SDS011;53956;52.442;13.284;2023-04-03T00:20:53;6.07;;;3.20;;
18125;SDS011;53956;52.442;13.284;2023-04-03T00:23:21;6.33;;;3.50;;
18125;SDS011;53956;52.442;13.284;2023-04-03T00:25:48;10.67;;;3.47;;
18125;SDS011;53956;52.442;13.284;2023-04-03T00:28:15;8.37;;;3.27;;
18125;SDS011;53956;52.442;13.284;2023-04-03T00:30:42;7.17;;;3.30;;
18125;SDS011;53956;52.442;13.284;2023-04-03T00:33:09;7.93;;;3.47;;
18125;SDS011;53956;52.442;13.284;2023-04-03T00:35:37;7.20;;;2.97;;
18125;SDS011;53956;52.442;13.284;2023-04-03T00:38:04;7.30;;;3.57;;
18125;SDS011;53956;52.442;13.284;2023-04-03T00:40:34;5.33;;;3.53;;
18125;SDS011;53956;52.442;13.284;2023-04-03T00:43:05;9.23;;;3.73;;
18125;SDS011;53956;52.442;13.284;2023-04-03T00:45:38;7.20;;;3.33;;
18125;SDS011;53956;52.442;13.284;2023-04-03T00:48:06;6.37;;;2.73;;
18125;SDS011;53956;52.442;13.284;2023-04-03T00:50:38;9.33;;;3.60;;
18125;SDS011;53956;52.442;13.284;2023-04-03T00:53:07;6.50;;;3.50;;
18125;SDS011;53956;52.442;13.284;2023-04-03T00:55:39;6.43;;;3.30;;
18125;SDS011;53956;52.442;13.284;2023-04-03T00:58:07;4.77;;;3.20;;
18125;SDS011;53956;52.442;13.284;2023-04-03T01:00:36;6.17;;;3.07;;
18125;SDS011;53956;52.442;13.284;2023-04-03T01:03:05;5.63;;;3.47;;
18125;SDS011;53956;52.442;13.284;2023-04-03T01:05:31;7.60;;;3.10;;
18125;SDS011;53956;52.442;13.284;2023-04-03T01:07:58;8.33;;;3.20;;
18125;SDS011;53956;52.442;13.284;2023-04-03T01:10:27;9.80;;;3.60;;
18125;SDS011;53956;52.442;13.284;2023-04-03T01:12:55;9.20;;;3.37;;
18125;SDS011;53956;52.442;13.284;2023-04-03T01:15:23;7.20;;;3.60;;
18125;SDS011;53956;52.442;13.284;2023-04-03T01:17:53;6.43;;;3.23;;
18125;SDS011;53956;52.442;13.284;2023-04-03T01:20:39;6.20;;;3.40;;
18125;SDS011;53956;52.442;13.284;2023-04-03T01:23:23;7.13;;;3.00;;
18125;SDS011;53956;52.442;13.284;2023-04-03T01:25:57;6.57;;;3.30;;
18125;SDS011;53956;52.442;13.284;2023-04-03T01:28:26;6.30;;;3.60;;
18125;SDS011;53956;52.442;13.284;2023-04-03T01:30:58;8.20;;;3.50;;
18125;SDS011;53956;52.442;13.284;2023-04-03T01:33:31;6.73;;;3.70;;
18125;SDS011;53956;52.442;13.284;2023-04-03T01:35:58;6.90;;;3.63;;
18125;SDS011;53956;52.442;13.284;2023-04-03T01:38:26;9.23;;;3.87;;
18125;SDS011;53956;52.442;13.284;2023-04-03T01:40:53;5.70;;;3.20;;
18125;SDS011;53956;52.442;13.284;2023-04-03T01:43:20;6.33;;;3.90;;
18125;SDS011;53956;52.442;13.284;2023-04-03T01:45:47;6.47;;;3.17;;
18125;SDS011;53956;52.442;13.284;2023-04-03T01:48:16;9.47;;;3.90;;
18125;SDS011;53956;52.442;13.284;2023-04-03T01:50:44;7.03;;;3.30;;
18125;SDS011;53956;52.442;13.284;2023-04-03T01:53:11;6.13;;;3.30;;
18125;SDS011;53956;52.442;13.284;2023-04-03T01:55:39;9.10;;;3.73;;
18125;SDS011;53956;52.442;13.284;2023-04-03T01:58:06;6.03;;;3.27;;
18125;SDS011;53956;52.442;13.284;2023-04-03T02:00:32;6.37;;;3.40;;
18125;SDS011;53956;52.442;13.284;2023-04-03T02:02:59;5.20;;;3.20;;
18125;SDS011;53956;52.442;13.284;2023-04-03T02:05:26;6.63;;;3.10;;
18125;SDS011;53956;52.442;13.284;2023-04-03T02:07:54;5.27;;;3.03;;
18125;SDS011;53956;52.442;13.284;2023-04-03T02:10:21;5.07;;;3.00;;
18125;SDS011;53956;52.442;13.284;2023-04-03T02:12:48;6.67;;;3.20;;
18125;SDS011;53956;52.442;13.284;2023-04-03T02:15:15;7.70;;;3.20;;
18125;SDS011;53956;52.442;13.284;2023-04-03T02:17:42;6.37;;;3.00;;
18125;SDS011;53956;52.442;13.284;2023-04-03T02:20:10;6.10;;;2.87;;
18125;SDS011;53956;52.442;13.284;2023-04-03T02:22:37;7.60;;;3.50;;
18125;SDS011;53956;52.442;13.284;2023-04-03T02:25:05;7.53;;;3.70;;
18125;SDS011;53956;52.442;13.284;2023-04-03T02:27:33;10.50;;;3.50;;
18125;SDS011;53956;52.442;13.284;2023-04-03T02:30:00;6.17;;;2.93;;
18125;SDS011;53956;52.442;13.284;2023-04-03T02:32:27;6.47;;;3.43;;
18125;SDS011;53956;52.442;13.284;2023-04-03T02:34:55;5.70;;;3.60;;
18125;SDS011;53956;52.442;13.284;2023-04-03T02:37:22;6.97;;;3.47;;
18125;SDS011;53956;52.442;13.284;2023-04-03T02:39:50;8.20;;;3.73;;
18125;SDS011;53956;52.442;13.284;2023-04-03T02:42:18;7.57;;;3.67;;
18125;SDS011;53956;52.442;13.284;2023-04-03T02:44:45;9.17;;;3.60;;
18125;SDS011;53956;52.442;13.284;2023-04-03T02:47:12;10.87;;;3.40;;
18125;SDS011;53956;52.442;13.284;2023-04-03T02:49:38;11.23;;;3.53;;
18125;SDS011;53956;52.442;13.284;2023-04-03T02:52:05;7.50;;;3.40;;
18125;SDS011;53956;52.442;13.284;2023-04-03T02:54:32;9.33;;;3.73;;
18125;SDS011;53956;52.442;13.284;2023-04-03T02:57:02;5.50;;;3.10;;
18125;SDS011;53956;52.442;13.284;2023-04-03T02:59:30;8.27;;;3.43;;
18125;SDS011;53956;52.442;13.284;2023-04-03T03:01:57;6.87;;;3.53;;
18125;SDS011;53956;52.442;13.284;2023-04-03T03:04:24;6.50;;;3.20;;
18125;SDS011;53956;52.442;13.284;2023-04-03T03:06:50;5.43;;;3.20;;
18125;SDS011;53956;52.442;13.284;2023-04-03T03:09:17;8.30;;;3.10;;
18125;SDS011;53956;52.442;13.284;2023-04-03T03:11:44;8.73;;;3.40;;
18125;SDS011;53956;52.442;13.284;2023-04-03T03:14:11;6.60;;;3.37;;
18125;SDS011;53956;52.442;13.284;2023-04-03T03:16:39;10.20;;;4.10;;
18125;SDS011;53956;52.442;13.284;2023-04-03T03:19:06;8.37;;;3.73;;
18125;SDS011;53956;52.442;13.284;2023-04-03T03:21:32;8.53;;;3.57;;
18125;SDS011;53956;52.442;13.284;2023-04-03T03:24:00;8.27;;;3.70;;
18125;SDS011;53956;52.442;13.284;2023-04-03T03:26:27;7.40;;;3.67;;
18125;SDS011;53956;52.442;13.284;2023-04-03T03:28:54;7.00;;;3.60;;
18125;SDS011;53956;52.442;13.284;2023-04-03T03:31:21;6.60;;;3.67;;
18125;SDS011;53956;52.442;13.284;2023-04-03T03:33:49;6.97;;;3.87;;
18125;SDS011;53956;52.442;13.284;2023-04-03T03:36:16;9.13;;;3.90;;
18125;SDS011;53956;52.442;13.284;2023-04-03T03:38:42;7.90;;;3.90;;
18125;SDS011;53956;52.442;13.284;2023-04-03T03:41:09;7.90;;;3.93;;
18125;SDS011;53956;52.442;13.284;2023-04-03T03:43:37;5.47;;;3.67;;
18125;SDS011;53956;52.442;13.284;2023-04-03T03:46:06;6.80;;;3.77;;
18125;SDS011;53956;52.442;13.284;2023-04-03T03:48:32;7.50;;;3.27;;
18125;SDS011;53956;52.442;13.284;2023-04-03T03:51:01;9.23;;;3.97;;
18125;SDS011;53956;52.442;13.284;2023-04-03T03:53:32;7.20;;;3.67;;
18125;SDS011;53956;52.442;13.284;2023-04-03T03:56:04;11.10;;;3.63;;
18125;SDS011;53956;52.442;13.284;2023-04-03T03:58:32;8.40;;;3.43;;
18125;SDS011;53956;52.442;13.284;2023-04-03T04:01:01;7.07;;;3.73;;
18125;SDS011;53956;52.442;13.284;2023-04-03T04:03:28;8.47;;;3.67;;
18125;SDS011;53956;52.442;13.284;2023-04-03T04:05:55;8.77;;;3.83;;
18125;SDS011;53956;52.442;13.284;2023-04-03T04:08:24;6.03;;;3.70;;
18125;SDS011;53956;52.442;13.284;2023-04-03T04:10:50;9.33;;;3.83;;
18125;SDS011;53956;52.442;13.284;2023-04-03T04:13:18;7.90;;;3.77;;
18125;SDS011;53956;52.442;13.284;2023-04-03T04:15:45;6.83;;;3.67;;
18125;SDS011;53956;52.442;13.284;2023-04-03T04:18:13;9.27;;;3.97;;
18125;SDS011;53956;52.442;13.284;2023-04-03T04:20:43;6.80;;;3.37;;
18125;SDS011;53956;52.442;13.284;2023-04-03T04:23:11;6.70;;;3.50;;
18125;SDS011;53956;52.442;13.284;2023-04-03T04:25:40;11.90;;;3.90;;
18125;SDS011;53956;52.442;13.284;2023-04-03T04:28:06;10.33;;;3.83;;
18125;SDS011;53956;52.442;13.284;2023-04-03T04:30:34;7.77;;;3.63;;
18125;SDS011;53956;52.442;13.284;2023-04-03T04:33:01;6.07;;;3.80;;
18125;SDS011;53956;52.442;13.284;2023-04-03T04:35:31;7.67;;;3.90;;
18125;SDS011;53956;52.442;13.284;2023-04-03T04:37:58;7.50;;;3.53;;
18125;SDS011;53956;52.442;13.284;2023-04-03T04:40:26;8.60;;;3.13;;
18125;SDS011;53956;52.442;13.284;2023-04-03T04:42:54;8.23;;;4.07;;
18125;SDS011;53956;52.442;13.284;2023-04-03T04:45:21;6.73;;;3.60;;
18125;SDS011;53956;52.442;13.284;2023-04-03T04:47:48;7.07;;;3.83;;
18125;SDS011;53956;52.442;13.284;2023-04-03T04:50:16;8.93;;;3.60;;
18125;SDS011;53956;52.442;13.284;2023-04-03T04:52:43;8.40;;;3.97;;
18125;SDS011;53956;52.442;13.284;2023-04-03T04:55:10;10.20;;;4.13;;
18125;SDS011;53956;52.442;13.284;2023-04-03T04:57:37;9.70;;;3.97;;
18125;SDS011;53956;52.442;13.284;2023-04-03T05:00:07;9.80;;;4.10;;
18125;SDS011;53956;52.442;13.284;2023-04-03T05:02:34;9.03;;;3.77;;
18125;SDS011;53956;52.442;13.284;2023-04-03T05:05:01;8.53;;;4.53;;
18125;SDS011;53956;52.442;13.284;2023-04-03T05:07:29;12.30;;;3.90;;
18125;SDS011;53956;52.442;13.284;2023-04-03T05:09:57;8.93;;;3.70;;
18125;SDS011;53956;52.442;13.284;2023-04-03T05:12:24;5.27;;;3.50;;
18125;SDS011;53956;52.442;13.284;2023-04-03T05:14:55;8.27;;;4.03;;
18125;SDS011;53956;52.442;13.284;2023-04-03T05:17:25;7.83;;;3.60;;
18125;SDS011;53956;52.442;13.284;2023-04-03T05:19:54;7.07;;;3.50;;
18125;SDS011;53956;52.442;13.284;2023-04-03T05:22:22;7.50;;;3.57;;
18125;SDS011;53956;52.442;13.284;2023-04-03T05:24:51;7.80;;;3.90;;
18125;SDS011;53956;52.442;13.284;2023-04-03T05:27:19;8.57;;;4.03;;
18125;SDS011;53956;52.442;13.284;2023-04-03T05:29:52;8.30;;;4.10;;
18125;SDS011;53956;52.442;13.284;2023-04-03T05:32:20;8.60;;;4.47;;
18125;SDS011;53956;52.442;13.284;2023-04-03T05:34:54;8.90;;;3.90;;
18125;SDS011;53956;52.442;13.284;2023-04-03T05:37:20;9.37;;;4.30;;
18125;SDS011;53956;52.442;13.284;2023-04-03T05:39:49;7.97;;;4.10;;
18125;SDS011;53956;52.442;13.284;2023-04-03T05:42:16;8.70;;;4.20;;
18125;SDS011;53956;52.442;13.284;2023-04-03T05:44:43;7.40;;;3.63;;
18125;SDS011;53956;52.442;13.284;2023-04-03T05:47:13;8.33;;;4.07;;
18125;SDS011;53956;52.442;13.284;2023-04-03T05:49:40;6.80;;;3.00;;
18125;SDS011;53956;52.442;13.284;2023-04-03T05:52:11;10.00;;;3.40;;
18125;SDS011;53956;52.442;13.284;2023-04-03T05:54:46;7.63;;;2.90;;
18125;SDS011;53956;52.442;13.284;2023-04-03T05:57:18;6.30;;;2.80;;
18125;SDS011;53956;52.442;13.284;2023-04-03T05:59:45;8.73;;;3.03;;
18125;SDS011;53956;52.442;13.284;2023-04-03T06:02:14;6.53;;;2.80;;
18125;SDS011;53956;52.442;13.284;2023-04-03T06:04:42;7.33;;;2.30;;
18125;SDS011;53956;52.442;13.284;2023-04-03T06:07:11;8.80;;;2.50;;
18125;SDS011;53956;52.442;13.284;2023-04-03T06:09:40;6.50;;;2.67;;
18125;SDS011;53956;52.442;13.284;2023-04-03T06:12:07;5.30;;;2.20;;
18125;SDS011;53956;52.442;13.284;2023-04-03T06:14:34;7.87;;;2.40;;
18125;SDS011;53956;52.442;13.284;2023-04-03T06:17:01;9.20;;;2.10;;
18125;SDS011;53956;52.442;13.284;2023-04-03T06:19:27;11.23;;;2.33;;
18125;SDS011;53956;52.442;13.284;2023-04-03T06:21:56;7.97;;;2.23;;
18125;SDS011;53956;52.442;13.284;2023-04-03T06:24:24;6.00;;;2.22;;
18125;SDS011;53956;52.442;13.284;2023-04-03T06:26:51;5.65;;;2.08;;
18125;SDS011;53956;52.442;13.284;2023-04-03T06:29:18;5.53;;;2.00;;
18125;SDS011;53956;52.442;13.284;2023-04-03T06:31:46;5.15;;;2.20;;
18125;SDS011;53956;52.442;13.284;2023-04-03T06:34:13;5.10;;;1.60;;
18125;SDS011;53956;52.442;13.284;2023-04-03T06:36:40;5.10;;;1.70;;
18125;SDS011;53956;52.442;13.284;2023-04-03T06:39:08;3.78;;;1.85;;
18125;SDS011;53956;52.442;13.284;2023-04-03T06:41:36;6.25;;;2.00;;
18125;SDS011;53956;52.442;13.284;2023-04-03T06:44:03;6.47;;;1.85;;
18125;SDS011;53956;52.442;13.284;2023-04-03T06:46:30;4.78;;;2.20;;
18125;SDS011;53956;52.442;13.284;2023-04-03T06:48:57;6.32;;;1.90;;
18125;SDS011;53956;52.442;13.284;2023-04-03T06:51:24;5.07;;;1.75;;
18125;SDS011;53956;52.442;13.284;2023-04-03T06:53:53;6.28;;;2.00;;
18125;SDS011;53956;52.442;13.284;2023-04-03T06:56:21;4.15;;;1.77;;
18125;SDS011;53956;52.442;13.284;2023-04-03T06:58:49;6.15;;;1.80;;
18125;SDS011;53956;52.442;13.284;2023-04-03T07:01:16;5.53;;;2.58;;
18125;SDS011;53956;52.442;13.284;2023-04-03T07:03:44;5.13;;;1.98;;
18125;SDS011;53956;52.442;13.284;2023-04-03T07:06:13;6.20;;;2.17;;
18125;SDS011;53956;52.442;13.284;2023-04-03T07:08:40;4.85;;;1.92;;
18125;SDS011;53956;52.442;13.284;2023-04-03T07:11:07;4.95;;;1.92;;
18125;SDS011;53956;52.442;13.284;2023-04-03T07:13:35;4.22;;;1.60;;
18125;SDS011;53956;52.442;13.284;2023-04-03T07:16:03;6.10;;;1.70;;
18125;SDS011;53956;52.442;13.284;2023-04-03T07:18:31;5.60;;;1.90;;
18125;SDS011;53956;52.442;13.284;2023-04-03T07:20:58;5.55;;;1.70;;
18125;SDS011;53956;52.442;13.284;2023-04-03T07:23:25;5.47;;;1.73;;
18125;SDS011;53956;52.442;13.284;2023-04-03T07:25:52;5.13;;;1.90;;
18125;SDS011;53956;52.442;13.284;2023-04-03T07:28:20;6.47;;;1.90;;
18125;SDS011;53956;52.442;13.284;2023-04-03T07:30:48;3.67;;;1.80;;
18125;SDS011;53956;52.442;13.284;2023-04-03T07:33:18;6.93;;;1.97;;
18125;SDS011;53956;52.442;13.284;2023-04-03T07:35:46;5.75;;;1.90;;
18125;SDS011;53956;52.442;13.284;2023-04-03T07:38:13;8.32;;;1.70;;
18125;SDS011;53956;52.442;13.284;2023-04-03T07:40:41;8.73;;;1.92;;
18125;SDS011;53956;52.442;13.284;2023-04-03T07:43:11;4.40;;;1.70;;
18125;SDS011;53956;52.442;13.284;2023-04-03T07:45:38;4.10;;;2.00;;
18125;SDS011;53956;52.442;13.284;2023-04-03T07:48:05;3.17;;;1.97;;
18125;SDS011;53956;52.442;13.284;2023-04-03T07:50:33;3.37;;;1.80;;
18125;SDS011;53956;52.442;13.284;2023-04-03T07:53:01;7.40;;;2.20;;
18125;SDS011;53956;52.442;13.284;2023-04-03T07:55:28;4.93;;;2.57;;
18125;SDS011;53956;52.442;13.284;2023-04-03T07:57:54;4.10;;;2.20;;
18125;SDS011;53956;52.442;13.284;2023-04-03T08:00:21;6.17;;;2.20;;
18125;SDS011;53956;52.442;13.284;2023-04-03T08:02:48;7.13;;;2.43;;
18125;SDS011;53956;52.442;13.284;2023-04-03T08:05:16;3.07;;;2.30;;
18125;SDS011;53956;52.442;13.284;2023-04-03T08:07:44;4.80;;;2.30;;
18125;SDS011;53956;52.442;13.284;2023-04-03T08:10:12;5.67;;;2.40;;
18125;SDS011;53956;52.442;13.284;2023-04-03T08:12:39;5.27;;;2.40;;
18125;SDS011;53956;52.442;13.284;2023-04-03T08:15:06;4.03;;;2.20;;
18125;SDS011;53956;52.442;13.284;2023-04-03T08:17:34;4.23;;;2.33;;
18125;SDS011;53956;52.442;13.284;2023-04-03T08:20:02;4.70;;;2.23;;
18125;SDS011;53956;52.442;13.284;2023-04-03T08:22:31;3.90;;;2.07;;
18125;SDS011;53956;52.442;13.284;2023-04-03T08:24:59;6.30;;;2.57;;
18125;SDS011;53956;52.442;13.284;2023-04-03T08:27:26;5.50;;;2.47;;
18125;SDS011;53956;52.442;13.284;2023-04-03T08:29:53;4.50;;;2.40;;
18125;SDS011;53956;52.442;13.284;2023-04-03T08:32:20;4.83;;;2.20;;
18125;SDS011;53956;52.442;13.284;2023-04-03T08:34:47;5.93;;;2.00;;
18125;SDS011;53956;52.442;13.284;2023-04-03T08:37:13;4.53;;;2.17;;
18125;SDS011;53956;52.442;13.284;2023-04-03T08:39:41;3.53;;;2.40;;
18125;SDS011;53956;52.442;13.284;2023-04-03T08:42:13;6.63;;;2.50;;
18125;SDS011;53956;52.442;13.284;2023-04-03T08:44:46;4.03;;;2.60;;
18125;SDS011;53956;52.442;13.284;2023-04-03T08:47:18;8.60;;;2.57;;
18125;SDS011;53956;52.442;13.284;2023-04-03T08:49:49;3.83;;;2.57;;
18125;SDS011;53956;52.442;13.284;2023-04-03T08:52:20;6.03;;;2.50;;
18125;SDS011;53956;52.442;13.284;2023-04-03T08:54:52;4.23;;;2.47;;
18125;SDS011;53956;52.442;13.284;2023-04-03T08:57:26;6.23;;;2.63;;
18125;SDS011;53956;52.442;13.284;2023-04-03T08:59:57;5.43;;;2.53;;
18125;SDS011;53956;52.442;13.284;2023-04-03T09:02:27;5.07;;;2.97;;
18125;SDS011;53956;52.442;13.284;2023-04-03T09:04:57;5.57;;;2.60;;
18125;SDS011;53956;52.442;13.284;2023-04-03T09:07:25;8.30;;;2.80;;
18125;SDS011;53956;52.442;13.284;2023-04-03T09:10:01;5.67;;;2.50;;
18125;SDS011;53956;52.442;13.284;2023-04-03T09:12:33;4.30;;;2.67;;
18125;SDS011;53956;52.442;13.284;2023-04-03T09:15:05;4.87;;;2.60;;
18125;SDS011;53956;52.442;13.284;2023-04-03T09:17:41;4.27;;;2.67;;
18125;SDS011;53956;52.442;13.284;2023-04-03T09:20:16;5.70;;;2.90;;
18125;SDS011;53956;52.442;13.284;2023-04-03T09:22:48;5.43;;;2.53;;
18125;SDS011;53956;52.442;13.284;2023-04-03T09:25:18;6.10;;;2.60;;
18125;SDS011;53956;52.442;13.284;2023-04-03T09:27:49;9.97;;;3.03;;
18125;SDS011;53956;52.442;13.284;2023-04-03T09:30:17;3.87;;;2.57;;
18125;SDS011;53956;52.442;13.284;2023-04-03T09:32:45;4.17;;;2.37;;
18125;SDS011;53956;52.442;13.284;2023-04-03T09:35:17;3.80;;;2.50;;
18125;SDS011;53956;52.442;13.284;2023-04-03T09:37:47;3.30;;;2.57;;
18125;SDS011;53956;52.442;13.284;2023-04-03T09:40:29;4.90;;;2.67;;
18125;SDS011;53956;52.442;13.284;2023-04-03T09:43:01;2.87;;;2.50;;
18125;SDS011;53956;52.442;13.284;2023-04-03T09:45:44;4.83;;;2.40;;
18125;SDS011;53956;52.442;13.284;2023-04-03T09:48:15;6.13;;;2.70;;
18125;SDS011;53956;52.442;13.284;2023-04-03T09:50:57;5.43;;;2.30;;
18125;SDS011;53956;52.442;13.284;2023-04-03T09:53:30;3.27;;;2.20;;
18125;SDS011;53956;52.442;13.284;2023-04-03T09:55:59;4.87;;;2.40;;
18125;SDS011;53956;52.442;13.284;2023-04-03T09:58:30;3.10;;;2.30;;
18125;SDS011;53956;52.442;13.284;2023-04-03T10:01:00;2.43;;;2.03;;
18125;SDS011;53956;52.442;13.284;2023-04-03T10:03:29;3.27;;;2.23;;
18125;SDS011;53956;52.442;13.284;2023-04-03T10:05:58;6.40;;;2.40;;
18125;SDS011;53956;52.442;13.284;2023-04-03T10:08:26;5.13;;;2.50;;
18125;SDS011;53956;52.442;13.284;2023-04-03T10:11:14;5.17;;;2.60;;
18125;SDS011;53956;52.442;13.284;2023-04-03T10:13:53;5.33;;;2.57;;
18125;SDS011;53956;52.442;13.284;2023-04-03T10:16:23;5.00;;;2.67;;
18125;SDS011;53956;52.442;13.284;2023-04-03T10:18:56;7.93;;;3.03;;
18125;SDS011;53956;52.442;13.284;2023-04-03T10:21:34;6.83;;;3.10;;
18125;SDS011;53956;52.442;13.284;2023-04-03T10:24:09;2.53;;;2.20;;
18125;SDS011;53956;52.442;13.284;2023-04-03T10:26:41;3.00;;;2.37;;
18125;SDS011;53956;52.442;13.284;2023-04-03T10:29:18;5.17;;;2.60;;
18125;SDS011;53956;52.442;13.284;2023-04-03T10:31:56;4.30;;;2.60;;
18125;SDS011;53956;52.442;13.284;2023-04-03T10:34:30;5.93;;;2.37;;
18125;SDS011;53956;52.442;13.284;2023-04-03T10:37:01;4.83;;;2.67;;
18125;SDS011;53956;52.442;13.284;2023-04-03T10:39:38;4.53;;;2.30;;
18125;SDS011;53956;52.442;13.284;2023-04-03T10:42:12;3.47;;;2.40;;
18125;SDS011;53956;52.442;13.284;2023-04-03T10:44:51;3.73;;;2.30;;
18125;SDS011;53956;52.442;13.284;2023-04-03T10:47:28;3.63;;;2.30;;
18125;SDS011;53956;52.442;13.284;2023-04-03T10:50:02;8.60;;;2.60;;
18125;SDS011;53956;52.442;13.284;2023-04-03T10:52:43;3.63;;;2.27;;
18125;SDS011;53956;52.442;13.284;2023-04-03T10:55:17;2.40;;;2.20;;
18125;SDS011;53956;52.442;13.284;2023-04-03T10:57:50;4.47;;;2.27;;
18125;SDS011;53956;52.442;13.284;2023-04-03T11:00:21;3.03;;;1.90;;
18125;SDS011;53956;52.442;13.284;2023-04-03T11:02:51;3.93;;;2.20;;
18125;SDS011;53956;52.442;13.284;2023-04-03T11:05:21;3.10;;;2.23;;
18125;SDS011;53956;52.442;13.284;2023-04-03T11:07:55;2.73;;;2.10;;
18125;SDS011;53956;52.442;13.284;2023-04-03T11:10:35;3.03;;;2.20;;
18125;SDS011;53956;52.442;13.284;2023-04-03T11:13:07;3.43;;;2.20;;
18125;SDS011;53956;52.442;13.284;2023-04-03T11:15:40;4.93;;;2.30;;
18125;SDS011;53956;52.442;13.284;2023-04-03T11:18:10;6.73;;;2.30;;
18125;SDS011;53956;52.442;13.284;2023-04-03T11:20:40;3.10;;;2.00;;
18125;SDS011;53956;52.442;13.284;2023-04-03T11:23:24;2.73;;;1.90;;
18125;SDS011;53956;52.442;13.284;2023-04-03T11:25:53;5.13;;;2.50;;
18125;SDS011;53956;52.442;13.284;2023-04-03T11:28:25;2.53;;;2.20;;
18125;SDS011;53956;52.442;13.284;2023-04-03T11:30:55;4.90;;;2.60;;
18125;SDS011;53956;52.442;13.284;2023-04-03T11:33:36;8.07;;;2.20;;
18125;SDS011;53956;52.442;13.284;2023-04-03T11:36:12;5.70;;;2.30;;
18125;SDS011;53956;52.442;13.284;2023-04-03T11:38:47;3.83;;;2.13;;
18125;SDS011;53956;52.442;13.284;2023-04-03T11:41:16;4.40;;;2.23;;
18125;SDS011;53956;52.442;13.284;2023-04-03T11:43:55;6.27;;;2.20;;
18125;SDS011;53956;52.442;13.284;2023-04-03T11:46:35;4.20;;;2.50;;
18125;SDS011;53956;52.442;13.284;2023-04-03T11:55:43;4.50;;;2.27;;
18125;SDS011;53956;52.442;13.284;2023-04-03T11:58:12;5.73;;;2.47;;
18125;SDS011;53956;52.442;13.284;2023-04-03T12:00:47;6.13;;;2.20;;
18125;SDS011;53956;52.442;13.284;2023-04-03T12:05:45;4.67;;;2.40;;
18125;SDS011;53956;52.442;13.284;2023-04-03T12:08:23;6.23;;;2.40;;
18125;SDS011;53956;52.442;13.284;2023-04-03T12:11:27;5.73;;;2.83;;
18125;SDS011;53956;52.442;13.284;2023-04-03T12:14:13;3.60;;;2.40;;
18125;SDS011;53956;52.442;13.284;2023-04-03T12:17:16;2.87;;;2.10;;
18125;SDS011;53956;52.442;13.284;2023-04-03T12:23:21;3.33;;;2.37;;
18125;SDS011;53956;52.442;13.284;2023-04-03T12:26:08;8.20;;;2.63;;
18125;SDS011;53956;52.442;13.284;2023-04-03T12:28:50;2.60;;;2.23;;
18125;SDS011;53956;52.442;13.284;2023-04-03T12:31:25;5.57;;;2.57;;
18125;SDS011;53956;52.442;13.284;2023-04-03T12:34:12;3.40;;;2.40;;
18125;SDS011;53956;52.442;13.284;2023-04-03T12:37:07;4.27;;;2.20;;
18125;SDS011;53956;52.442;13.284;2023-04-03T12:39:57;4.73;;;2.20;;
18125;SDS011;53956;52.442;13.284;2023-04-03T12:45:50;6.60;;;2.47;;
18125;SDS011;53956;52.442;13.284;2023-04-03T12:48:39;5.70;;;2.70;;
18125;SDS011;53956;52.442;13.284;2023-04-03T12:51:50;2.97;;;2.50;;
18125;SDS011;53956;52.442;13.284;2023-04-03T12:54:26;3.47;;;2.30;;
18125;SDS011;53956;52.442;13.284;2023-04-03T12:57:16;4.17;;;2.50;;
18125;SDS011;53956;52.442;13.284;2023-04-03T12:59:53;3.27;;;2.40;;
18125;SDS011;53956;52.442;13.284;2023-04-03T13:02:36;4.70;;;2.20;;
18125;SDS011;53956;52.442;13.284;2023-04-03T13:05:31;4.27;;;2.30;;
18125;SDS011;53956;52.442;13.284;2023-04-03T13:08:10;2.77;;;2.40;;
18125;SDS011;53956;52.442;13.284;2023-04-03T13:11:14;3.90;;;2.63;;
18125;SDS011;53956;52.442;13.284;2023-04-03T13:17:29;4.10;;;2.50;;
18125;SDS011;53956;52.442;13.284;2023-04-03T13:20:41;4.13;;;2.50;;
18125;SDS011;53956;52.442;13.284;2023-04-03T13:26:47;3.73;;;2.70;;
18125;SDS011;53956;52.442;13.284;2023-04-03T13:29:42;5.10;;;2.43;;
18125;SDS011;53956;52.442;13.284;2023-04-03T13:37:56;4.03;;;1.90;;
18125;SDS011;53956;52.442;13.284;2023-04-03T13:40:24;4.10;;;2.37;;
18125;SDS011;53956;52.442;13.284;2023-04-03T13:42:58;3.63;;;2.20;;
18125;SDS011;53956;52.442;13.284;2023-04-03T13:45:29;4.40;;;2.33;;
18125;SDS011;53956;52.442;13.284;2023-04-03T13:48:08;3.80;;;2.20;;
18125;SDS011;53956;52.442;13.284;2023-04-03T13:50:50;6.33;;;2.47;;
18125;SDS011;53956;52.442;13.284;2023-04-03T13:53:21;2.90;;;2.20;;
18125;SDS011;53956;52.442;13.284;2023-04-03T13:55:53;3.10;;;2.20;;
18125;SDS011;53956;52.442;13.284;2023-04-03T13:58:26;8.87;;;2.80;;
18125;SDS011;53956;52.442;13.284;2023-04-03T14:00:56;5.43;;;2.33;;
18125;SDS011;53956;52.442;13.284;2023-04-03T14:03:28;2.70;;;2.37;;
18125;SDS011;53956;52.442;13.284;2023-04-03T14:05:57;3.47;;;2.67;;
18125;SDS011;53956;52.442;13.284;2023-04-03T14:08:24;4.83;;;2.37;;
18125;SDS011;53956;52.442;13.284;2023-04-03T14:10:50;3.20;;;2.30;;
18125;SDS011;53956;52.442;13.284;2023-04-03T14:13:19;2.40;;;2.20;;
18125;SDS011;53956;52.442;13.284;2023-04-03T14:15:47;4.27;;;2.30;;
18125;SDS011;53956;52.442;13.284;2023-04-03T14:18:17;5.20;;;2.50;;
18125;SDS011;53956;52.442;13.284;2023-04-03T14:20:46;3.67;;;2.50;;
18125;SDS011;53956;52.442;13.284;2023-04-03T14:23:13;4.23;;;2.20;;
18125;SDS011;53956;52.442;13.284;2023-04-03T14:25:41;2.40;;;2.13;;
18125;SDS011;53956;52.442;13.284;2023-04-03T14:28:15;4.07;;;2.40;;
18125;SDS011;53956;52.442;13.284;2023-04-03T14:30:44;3.17;;;2.17;;
18125;SDS011;53956;52.442;13.284;2023-04-03T14:33:13;5.03;;;2.27;;
18125;SDS011;53956;52.442;13.284;2023-04-03T14:35:43;4.33;;;2.50;;
18125;SDS011;53956;52.442;13.284;2023-04-03T14:38:20;6.10;;;2.50;;
18125;SDS011;53956;52.442;13.284;2023-04-03T14:40:49;4.93;;;2.37;;
18125;SDS011;53956;52.442;13.284;2023-04-03T14:43:17;4.90;;;2.17;;
18125;SDS011;53956;52.442;13.284;2023-04-03T14:45:45;4.47;;;2.33;;
18125;SDS011;53956;52.442;13.284;2023-04-03T14:48:12;3.57;;;2.17;;
18125;SDS011;53956;52.442;13.284;2023-04-03T14:50:45;3.03;;;2.27;;
18125;SDS011;53956;52.442;13.284;2023-04-03T14:53:13;6.10;;;2.40;;
18125;SDS011;53956;52.442;13.284;2023-04-03T14:55:41;4.40;;;2.43;;
18125;SDS011;53956;52.442;13.284;2023-04-03T14:58:11;3.97;;;2.40;;
18125;SDS011;53956;52.442;13.284;2023-04-03T15:00:40;3.50;;;2.47;;
18125;SDS011;53956;52.442;13.284;2023-04-03T15:03:09;3.80;;;2.40;;
18125;SDS011;53956;52.442;13.284;2023-04-03T15:05:41;4.20;;;2.50;;
18125;SDS011;53956;52.442;13.284;2023-04-03T15:08:13;3.77;;;2.50;;
18125;SDS011;53956;52.442;13.284;2023-04-03T15:10:44;2.63;;;2.33;;
18125;SDS011;53956;52.442;13.284;2023-04-03T15:13:11;3.63;;;2.43;;
18125;SDS011;53956;52.442;13.284;2023-04-03T15:15:38;4.47;;;2.33;;
18125;SDS011;53956;52.442;13.284;2023-04-03T15:18:05;5.60;;;3.00;;
18125;SDS011;53956;52.442;13.284;2023-04-03T15:20:32;5.43;;;2.80;;
18125;SDS011;53956;52.442;13.284;2023-04-03T15:22:59;3.83;;;2.40;;